createdAt,value
2023-03-29T00:01:35.999Z,44.45
2023-03-29T00:04:07.779Z,43.70
2023-03-29T00:06:38.754Z,41.90
2023-03-29T00:09:10.215Z,38.70
2023-03-29T00:11:43.071Z,36.22
2023-03-29T00:14:13.693Z,34.43
2023-03-29T00:16:47.030Z,33.05
2023-03-29T00:19:17.921Z,40.90
2023-03-29T00:21:48.842Z,40.33
2023-03-29T00:24:21.268Z,35.33
2023-03-29T00:26:53.982Z,38.60
2023-03-29T00:29:24.351Z,41.47
2023-03-29T00:31:56.157Z,35.33
2023-03-29T00:34:30.938Z,32.75
2023-03-29T00:37:01.702Z,32.08
2023-03-29T00:39:33.261Z,35.63
2023-03-29T00:42:06.583Z,28.17
2023-03-29T00:45:04.566Z,23.77
2023-03-29T00:47:42.600Z,27.23
2023-03-29T00:50:17.826Z,30.02
2023-03-29T00:52:56.304Z,27.10
2023-03-29T00:55:31.763Z,23.77
2023-03-29T00:58:06.255Z,28.88
2023-03-29T01:00:42.276Z,28.52
2023-03-29T01:03:25.058Z,25.70
2023-03-29T01:06:01.522Z,23.58
2023-03-29T01:08:39.074Z,21.65
2023-03-29T01:11:14.475Z,20.40
2023-03-29T01:14:20.229Z,23.98
2023-03-29T01:16:51.074Z,26.23
2023-03-29T01:19:28.746Z,30.27
2023-03-29T01:22:13.644Z,24.88
2023-03-29T01:25:04.067Z,21.75
2023-03-29T01:27:54.940Z,20.35
2023-03-29T01:30:31.733Z,19.35
2023-03-29T01:33:08.036Z,19.77
2023-03-29T01:35:46.670Z,20.08
2023-03-29T01:38:24.477Z,21.55
2023-03-29T01:40:55.505Z,20.55
2023-03-29T01:43:32.926Z,21.67
2023-03-29T01:46:08.834Z,21.52
2023-03-29T01:48:49.627Z,22.67
2023-03-29T01:51:27.272Z,23.90
2023-03-29T01:54:04.392Z,27.80
2023-03-29T01:56:40.528Z,26.58
2023-03-29T01:59:18.991Z,23.13
2023-03-29T02:01:54.538Z,26.25
2023-03-29T02:04:30.686Z,25.08
2023-03-29T02:07:03.410Z,25.20
2023-03-29T02:09:37.991Z,25.60
2023-03-29T02:12:10.918Z,24.67
2023-03-29T02:14:42.799Z,21.98
2023-03-29T02:17:21.944Z,23.73
2023-03-29T02:20:00.863Z,22.70
2023-03-29T02:22:43.469Z,20.95
2023-03-29T02:25:14.168Z,25.20
2023-03-29T02:27:46.045Z,27.45
2023-03-29T02:30:20.844Z,24.15
2023-03-29T02:33:00.612Z,23.80
2023-03-29T02:35:36.723Z,25.58
2023-03-29T02:38:11.824Z,27.52
2023-03-29T02:40:45.180Z,28.13
2023-03-29T02:43:17.257Z,26.55
2023-03-29T02:45:50.074Z,26.45
2023-03-29T02:48:24.632Z,25.08
2023-03-29T02:50:59.863Z,23.52
2023-03-29T02:53:39.197Z,22.90
2023-03-29T02:56:11.104Z,21.38
2023-03-29T02:58:42.146Z,20.58
2023-03-29T03:01:14.994Z,20.52
2023-03-29T03:06:16.169Z,19.38
2023-03-29T03:08:48.528Z,19.40
2023-03-29T03:11:19.074Z,20.63
2023-03-29T03:13:50.398Z,21.63
2023-03-29T03:16:22.403Z,21.90
2023-03-29T03:18:55.025Z,17.02
2023-03-29T03:21:25.968Z,21.38
2023-03-29T03:23:57.344Z,23.05
2023-03-29T03:26:30.290Z,22.70
2023-03-29T03:29:02.072Z,23.85
2023-03-29T03:32:00.212Z,24.83
2023-03-29T03:34:53.901Z,23.27
2023-03-29T03:37:28.306Z,23.80
2023-03-29T03:40:00.051Z,23.60
2023-03-29T03:42:32.662Z,20.63
2023-03-29T03:45:03.520Z,23.27
2023-03-29T03:47:44.018Z,23.63
2023-03-29T03:52:56.655Z,22.92
2023-03-29T03:55:30.128Z,24.20
2023-03-29T03:58:24.335Z,24.25
2023-03-29T04:00:56.156Z,23.67
2023-03-29T04:03:41.223Z,23.77
2023-03-29T04:06:16.833Z,24.58
2023-03-29T04:09:07.248Z,22.90
2023-03-29T04:11:42.111Z,23.52
2023-03-29T04:14:12.664Z,23.73
2023-03-29T04:17:12.502Z,23.88
2023-03-29T04:19:54.904Z,25.00
2023-03-29T04:22:26.172Z,23.10
2023-03-29T04:24:57.517Z,23.27
2023-03-29T04:27:37.658Z,22.13
2023-03-29T04:30:15.974Z,23.77
2023-03-29T04:33:06.110Z,23.08
2023-03-29T04:35:39.975Z,23.43
2023-03-29T04:38:17.550Z,21.95
2023-03-29T04:40:51.410Z,23.52
2023-03-29T04:43:40.119Z,22.35
2023-03-29T04:46:29.900Z,21.45
2023-03-29T04:49:19.317Z,23.40
2023-03-29T04:51:55.635Z,22.33
2023-03-29T04:54:30.988Z,22.33
2023-03-29T04:57:20.290Z,21.52
2023-03-29T05:00:15.337Z,20.77
2023-03-29T05:03:11.671Z,20.80
2023-03-29T05:05:47.034Z,20.45
2023-03-29T05:08:20.047Z,21.73
2023-03-29T05:11:13.782Z,21.00
2023-03-29T05:13:46.278Z,19.98
2023-03-29T05:16:19.009Z,20.52
2023-03-29T05:18:51.886Z,21.40
2023-03-29T05:21:24.113Z,20.23
2023-03-29T05:23:56.665Z,19.63
2023-03-29T05:27:03.797Z,20.80
2023-03-29T05:29:37.578Z,20.73
2023-03-29T05:32:28.413Z,20.98
2023-03-29T05:34:59.491Z,22.35
2023-03-29T05:37:30.706Z,22.70
2023-03-29T05:40:08.524Z,22.50
2023-03-29T05:42:53.502Z,21.73
2023-03-29T05:45:24.808Z,22.85
2023-03-29T05:47:56.616Z,21.20
2023-03-29T05:50:27.503Z,20.83
2023-03-29T05:53:00.997Z,22.10
2023-03-29T05:55:33.240Z,19.88
2023-03-29T05:58:04.782Z,21.70
2023-03-29T06:03:29.949Z,20.63
2023-03-29T06:06:04.851Z,18.85
2023-03-29T06:08:37.727Z,18.67
2023-03-29T06:11:35.067Z,19.58
2023-03-29T06:14:39.003Z,17.95
2023-03-29T06:17:26.574Z,17.73
2023-03-29T06:19:58.021Z,18.70
2023-03-29T06:22:30.267Z,19.23
2023-03-29T06:25:01.898Z,18.38
2023-03-29T06:27:38.564Z,18.95
2023-03-29T06:30:12.234Z,14.23
2023-03-29T06:32:42.816Z,20.30
2023-03-29T06:35:31.553Z,18.45
2023-03-29T06:38:09.706Z,20.13
2023-03-29T06:41:07.109Z,19.00
2023-03-29T06:43:57.877Z,18.95
2023-03-29T06:46:37.663Z,19.90
2023-03-29T06:49:12.248Z,18.80
2023-03-29T06:51:57.712Z,18.85
2023-03-29T06:54:28.586Z,18.52
2023-03-29T06:57:08.045Z,18.88
2023-03-29T06:59:40.286Z,18.58
2023-03-29T07:02:17.592Z,17.40
2023-03-29T07:04:58.642Z,15.82
2023-03-29T07:07:44.135Z,15.13
2023-03-29T07:10:32.830Z,15.52
2023-03-29T07:13:39.021Z,16.02
2023-03-29T07:16:14.299Z,15.93
2023-03-29T07:19:03.851Z,18.15
2023-03-29T07:21:54.989Z,14.10
2023-03-29T07:24:32.598Z,13.68
2023-03-29T07:27:04.395Z,16.88
2023-03-29T07:29:37.355Z,19.17
2023-03-29T07:32:09.689Z,18.90
2023-03-29T07:34:48.469Z,17.30
2023-03-29T07:37:30.702Z,15.48
2023-03-29T07:40:09.507Z,14.73
2023-03-29T07:42:54.385Z,14.50
2023-03-29T07:45:29.955Z,15.13
2023-03-29T07:48:10.092Z,15.75
2023-03-29T07:50:56.340Z,15.05
2023-03-29T07:53:32.447Z,14.73
2023-03-29T07:56:08.069Z,13.18
2023-03-29T07:59:05.007Z,12.40
2023-03-29T08:01:35.857Z,12.35
2023-03-29T08:04:08.296Z,13.00
2023-03-29T08:06:57.822Z,11.00
2023-03-29T08:09:38.507Z,11.13
2023-03-29T08:12:09.494Z,9.88
2023-03-29T08:14:41.504Z,10.82
2023-03-29T08:17:27.410Z,10.00
2023-03-29T08:19:59.409Z,9.52
2023-03-29T08:22:30.676Z,8.60
2023-03-29T08:25:19.912Z,8.27
2023-03-29T08:27:54.347Z,6.60
2023-03-29T08:30:37.316Z,5.78
2023-03-29T08:33:09.253Z,7.70
2023-03-29T08:35:41.754Z,6.88
2023-03-29T08:38:32.949Z,5.60
2023-03-29T08:41:07.546Z,6.03
2023-03-29T08:44:07.246Z,4.90
2023-03-29T08:47:08.196Z,5.53
2023-03-29T08:49:47.268Z,4.53
2023-03-29T08:52:32.314Z,5.82
2023-03-29T08:55:22.436Z,4.47
2023-03-29T08:58:31.191Z,4.00
2023-03-29T09:01:05.414Z,3.88
2023-03-29T09:03:49.636Z,3.67
2023-03-29T09:06:31.833Z,4.35
2023-03-29T09:09:21.190Z,5.00
2023-03-29T09:12:12.918Z,4.45
2023-03-29T09:15:01.264Z,3.63
2023-03-29T09:17:49.715Z,4.38
2023-03-29T09:20:37.504Z,4.72
2023-03-29T09:23:40.245Z,4.13
2023-03-29T09:26:46.039Z,3.80
2023-03-29T09:29:48.957Z,3.72
2023-03-29T09:32:24.536Z,4.00
2023-03-29T09:35:18.422Z,4.13
2023-03-29T09:37:52.674Z,3.97
2023-03-29T09:43:18.728Z,3.53
2023-03-29T09:45:58.026Z,4.53
2023-03-29T09:48:31.926Z,4.97
2023-03-29T09:51:03.456Z,4.65
2023-03-29T09:53:34.829Z,4.47
2023-03-29T09:56:19.823Z,3.72
2023-03-29T09:58:55.909Z,4.72
2023-03-29T10:01:37.250Z,4.13
2023-03-29T10:04:11.693Z,4.07
2023-03-29T10:06:49.325Z,5.20
2023-03-29T10:09:24.817Z,4.38
2023-03-29T10:12:08.163Z,5.03
2023-03-29T10:14:44.687Z,4.22
2023-03-29T10:17:21.913Z,4.82
2023-03-29T10:19:54.869Z,4.88
2023-03-29T10:22:28.595Z,5.13
2023-03-29T10:24:59.357Z,4.47
2023-03-29T10:27:34.751Z,4.70
2023-03-29T10:30:14.197Z,4.82
2023-03-29T10:32:45.769Z,9.20
2023-03-29T10:35:25.128Z,7.25
2023-03-29T10:37:59.715Z,4.47
2023-03-29T10:40:33.402Z,3.60
2023-03-29T10:43:15.950Z,4.32
2023-03-29T10:45:51.322Z,5.18
2023-03-29T10:48:29.693Z,4.90
2023-03-29T10:51:03.356Z,4.95
2023-03-29T10:53:36.786Z,4.32
2023-03-29T10:56:30.873Z,4.88
2023-03-29T10:59:22.058Z,4.85
2023-03-29T11:02:22.103Z,4.30
2023-03-29T11:05:10.668Z,4.05
2023-03-29T11:07:55.693Z,3.97
2023-03-29T11:10:40.582Z,4.47
2023-03-29T11:13:22.596Z,4.65
2023-03-29T11:16:06.937Z,4.45
2023-03-29T11:19:13.081Z,4.70
2023-03-29T11:21:57.422Z,3.85
2023-03-29T11:24:39.270Z,3.63
2023-03-29T11:27:24.238Z,3.42
2023-03-29T11:30:16.831Z,3.63
2023-03-29T11:33:01.918Z,3.67
2023-03-29T11:35:48.185Z,3.78
2023-03-29T11:38:29.347Z,3.90
2023-03-29T11:41:06.186Z,4.43
2023-03-29T11:43:42.882Z,4.13
2023-03-29T11:46:19.292Z,5.13
2023-03-29T11:48:57.035Z,4.15
2023-03-29T11:51:34.266Z,4.78
2023-03-29T11:54:11.881Z,5.00
2023-03-29T11:56:46.201Z,4.35
2023-03-29T11:59:28.782Z,4.00
2023-03-29T12:02:10.473Z,4.55
2023-03-29T12:04:47.315Z,4.65
2023-03-29T12:07:29.546Z,5.25
2023-03-29T12:10:07.072Z,4.18
2023-03-29T12:12:46.714Z,4.90
2023-03-29T12:15:22.314Z,4.75
2023-03-29T12:18:04.027Z,4.28
2023-03-29T12:20:42.249Z,4.43
2023-03-29T12:23:19.110Z,4.28
2023-03-29T12:26:02.377Z,4.30
2023-03-29T12:29:10.246Z,4.60
2023-03-29T12:31:52.233Z,4.38
2023-03-29T12:35:00.867Z,3.67
2023-03-29T12:37:47.079Z,3.70
2023-03-29T12:40:44.208Z,3.47
2023-03-29T12:43:51.350Z,3.13
2023-03-29T12:46:39.052Z,3.25
2023-03-29T12:49:17.235Z,2.78
2023-03-29T12:51:49.639Z,3.88
2023-03-29T12:54:27.953Z,3.40
2023-03-29T12:57:03.455Z,4.03
2023-03-29T12:59:43.110Z,3.72
2023-03-29T13:02:38.146Z,2.42
2023-03-29T13:05:35.028Z,2.53
2023-03-29T13:08:27.565Z,3.30
2023-03-29T13:10:58.967Z,3.55
2023-03-29T13:13:35.132Z,2.30
2023-03-29T13:16:18.448Z,2.90
2023-03-29T13:19:30.041Z,3.13
2023-03-29T13:22:22.431Z,3.38
2023-03-29T13:25:10.222Z,3.58
2023-03-29T13:27:52.355Z,4.13
2023-03-29T13:30:47.643Z,3.63
2023-03-29T13:33:45.959Z,2.00
2023-03-29T13:36:26.510Z,2.88
2023-03-29T13:39:02.239Z,2.75
2023-03-29T13:41:48.269Z,3.30
2023-03-29T13:44:27.388Z,3.63
2023-03-29T13:47:29.874Z,3.33
2023-03-29T13:50:06.590Z,2.85
2023-03-29T13:52:42.636Z,2.30
2023-03-29T13:55:22.279Z,2.60
2023-03-29T13:57:57.884Z,3.50
2023-03-29T14:00:37.062Z,2.97
2023-03-29T14:03:14.172Z,3.03
2023-03-29T14:05:56.167Z,2.13
2023-03-29T14:08:33.979Z,2.13
2023-03-29T14:11:09.666Z,3.22
2023-03-29T14:13:40.747Z,3.20
2023-03-29T14:16:13.878Z,2.05
2023-03-29T14:18:47.959Z,2.75
2023-03-29T14:21:20.074Z,1.30
2023-03-29T14:23:58.912Z,2.08
2023-03-29T14:26:33.893Z,2.65
2023-03-29T14:29:05.567Z,2.90
2023-03-29T14:31:39.742Z,2.85
2023-03-29T14:34:16.713Z,2.58
2023-03-29T14:36:50.446Z,1.65
2023-03-29T14:41:57.162Z,2.50
2023-03-29T14:44:31.188Z,2.75
2023-03-29T14:47:03.069Z,3.13
2023-03-29T14:49:35.190Z,2.70
2023-03-29T14:52:06.162Z,3.03
2023-03-29T14:54:38.090Z,2.40
2023-03-29T14:57:08.951Z,3.40
2023-03-29T14:59:42.928Z,2.88
2023-03-29T15:02:29.020Z,3.30
2023-03-29T15:05:04.832Z,2.80
2023-03-29T15:07:39.650Z,3.20
2023-03-29T15:10:18.709Z,3.10
2023-03-29T15:12:51.217Z,3.30
2023-03-29T15:15:22.377Z,3.38
2023-03-29T15:17:53.361Z,3.00
2023-03-29T15:20:29.397Z,2.70
2023-03-29T15:23:04.230Z,1.95
2023-03-29T15:25:36.488Z,2.53
2023-03-29T15:28:07.758Z,2.75
2023-03-29T15:30:49.419Z,2.88
2023-03-29T15:33:26.161Z,2.85
2023-03-29T15:35:59.275Z,4.82
2023-03-29T15:38:40.417Z,3.67
2023-03-29T15:41:14.807Z,2.85
2023-03-29T15:43:46.423Z,3.40
2023-03-29T15:46:17.035Z,2.53
2023-03-29T15:48:47.734Z,2.20
2023-03-29T15:51:19.695Z,2.15
2023-03-29T15:53:50.460Z,3.17
2023-03-29T15:56:23.023Z,2.22
2023-03-29T15:58:54.364Z,1.67
2023-03-29T16:01:35.765Z,1.73
2023-03-29T16:04:09.042Z,2.30
2023-03-29T16:06:41.160Z,2.30
2023-03-29T16:09:13.110Z,2.30
2023-03-29T16:11:45.828Z,3.60
2023-03-29T16:14:24.317Z,3.15
2023-03-29T16:16:57.213Z,2.20
2023-03-29T16:19:29.248Z,1.65
2023-03-29T16:22:03.426Z,3.28
2023-03-29T16:24:35.682Z,3.13
2023-03-29T16:27:06.662Z,1.85
2023-03-29T16:29:37.457Z,2.70
2023-03-29T16:32:07.956Z,3.00
2023-03-29T16:34:39.236Z,3.75
2023-03-29T16:37:11.234Z,3.90
2023-03-29T16:39:41.981Z,3.17
2023-03-29T16:42:13.380Z,3.80
2023-03-29T16:44:45.027Z,3.78
2023-03-29T16:47:15.512Z,3.95
2023-03-29T16:49:48.989Z,3.97
2023-03-29T16:52:21.321Z,3.80
2023-03-29T16:54:53.220Z,4.68
2023-03-29T16:57:23.706Z,4.47
2023-03-29T16:59:55.061Z,4.53
2023-03-29T17:02:25.677Z,4.93
2023-03-29T17:04:57.531Z,4.68
2023-03-29T17:07:30.631Z,4.72
2023-03-29T17:10:04.651Z,4.22
2023-03-29T17:12:35.554Z,3.90
2023-03-29T17:15:08.120Z,4.07
2023-03-29T17:17:39.379Z,4.45
2023-03-29T17:20:13.251Z,4.60
2023-03-29T17:25:16.629Z,3.97
2023-03-29T17:27:47.617Z,5.07
2023-03-29T17:30:18.834Z,4.43
2023-03-29T17:32:49.599Z,5.07
2023-03-29T17:35:20.512Z,5.93
2023-03-29T17:37:52.469Z,5.65
2023-03-29T17:40:24.592Z,6.43
2023-03-29T17:42:55.869Z,5.25
2023-03-29T17:45:27.256Z,4.75
2023-03-29T17:47:57.760Z,5.65
2023-03-29T17:50:29.293Z,6.30
2023-03-29T17:53:01.503Z,6.10
2023-03-29T17:55:32.673Z,6.47
2023-03-29T17:58:04.148Z,6.55
2023-03-29T18:00:35.347Z,6.28
2023-03-29T18:03:06.994Z,6.72
2023-03-29T18:05:37.965Z,6.65
2023-03-29T18:08:10.044Z,6.07
2023-03-29T18:10:40.914Z,7.28
2023-03-29T18:13:14.068Z,6.80
2023-03-29T18:15:45.646Z,6.63
2023-03-29T18:18:16.418Z,5.90
2023-03-29T18:20:47.623Z,6.05
2023-03-29T18:23:19.868Z,6.45
2023-03-29T18:25:50.952Z,6.30
2023-03-29T18:28:21.791Z,6.72
2023-03-29T18:30:53.874Z,7.53
2023-03-29T18:33:24.902Z,6.45
2023-03-29T18:35:56.288Z,6.93
2023-03-29T18:38:28.354Z,7.43
2023-03-29T18:40:59.389Z,7.90
2023-03-29T18:43:30.428Z,6.75
2023-03-29T18:46:02.005Z,6.68
2023-03-29T18:48:33.807Z,7.03
2023-03-29T18:51:05.639Z,6.85
2023-03-29T18:53:38.812Z,6.43
2023-03-29T18:56:09.492Z,6.13
2023-03-29T18:58:40.709Z,6.40
2023-03-29T19:01:14.097Z,6.22
2023-03-29T19:03:45.102Z,6.13
2023-03-29T19:06:16.865Z,6.15
2023-03-29T19:08:49.099Z,6.75
2023-03-29T19:11:20.079Z,7.23
2023-03-29T19:13:52.578Z,7.22
2023-03-29T19:16:23.611Z,6.40
2023-03-29T19:18:54.478Z,6.82
2023-03-29T19:21:25.221Z,7.53
2023-03-29T19:23:57.313Z,7.00
2023-03-29T19:26:28.691Z,7.78
2023-03-29T19:28:59.199Z,8.60
2023-03-29T19:31:30.464Z,7.88
2023-03-29T19:34:01.114Z,6.93
2023-03-29T19:36:32.230Z,7.25
2023-03-29T19:39:04.872Z,6.80
2023-03-29T19:41:35.870Z,8.05
2023-03-29T19:44:06.552Z,7.35
2023-03-29T19:46:37.851Z,7.22
2023-03-29T19:49:09.975Z,7.10
2023-03-29T19:51:40.886Z,7.75
2023-03-29T19:54:13.991Z,8.35
2023-03-29T19:59:17.804Z,7.85
2023-03-29T20:01:50.890Z,8.02
2023-03-29T20:04:24.873Z,7.60
2023-03-29T20:06:57.807Z,7.78
2023-03-29T20:09:30.107Z,9.07
2023-03-29T20:12:01.184Z,9.18
2023-03-29T20:14:32.080Z,9.20
2023-03-29T20:17:04.640Z,8.77
2023-03-29T20:19:36.775Z,8.48
2023-03-29T20:22:08.938Z,9.02
2023-03-29T20:24:41.718Z,10.25
2023-03-29T20:29:46.130Z,10.18
2023-03-29T20:32:18.781Z,8.68
2023-03-29T20:34:50.184Z,10.10
2023-03-29T20:37:23.507Z,10.73
2023-03-29T20:39:57.089Z,10.10
2023-03-29T20:42:30.570Z,9.45
2023-03-29T20:45:01.465Z,10.10
2023-03-29T20:47:33.041Z,10.32
2023-03-29T20:50:04.309Z,10.18
2023-03-29T20:52:36.150Z,10.27
2023-03-29T20:55:09.249Z,10.07
2023-03-29T20:57:42.329Z,10.52
2023-03-29T21:00:14.660Z,9.98
2023-03-29T21:02:46.398Z,9.10
2023-03-29T21:05:18.512Z,9.05
2023-03-29T21:07:50.104Z,9.32
2023-03-29T21:10:23.767Z,9.23
2023-03-29T21:13:00.422Z,9.15
2023-03-29T21:15:32.126Z,9.70
2023-03-29T21:18:03.434Z,11.40
2023-03-29T21:20:34.064Z,9.65
2023-03-29T21:23:04.900Z,9.02
2023-03-29T21:25:38.337Z,9.25
2023-03-29T21:28:10.506Z,10.65
2023-03-29T21:30:41.343Z,10.02
2023-03-29T21:33:12.274Z,11.30
2023-03-29T21:35:42.950Z,9.70
2023-03-29T21:38:13.784Z,9.80
2023-03-29T21:40:45.779Z,10.52
2023-03-29T21:43:16.835Z,10.63
2023-03-29T21:45:50.576Z,12.98
2023-03-29T21:48:21.575Z,12.05
2023-03-29T21:50:52.550Z,12.10
2023-03-29T21:53:23.332Z,11.48
2023-03-29T21:55:55.852Z,12.20
2023-03-29T21:58:26.870Z,13.48
2023-03-29T22:00:58.029Z,12.45
2023-03-29T22:03:28.867Z,11.35
2023-03-29T22:06:01.319Z,13.23
2023-03-29T22:08:33.142Z,9.73
2023-03-29T22:11:11.093Z,12.93
2023-03-29T22:13:42.432Z,12.63
2023-03-29T22:16:16.863Z,10.43
2023-03-29T22:18:49.845Z,10.80
2023-03-29T22:21:23.729Z,12.73
2023-03-29T22:23:57.401Z,12.65
2023-03-29T22:26:32.621Z,12.20
2023-03-29T22:29:04.229Z,12.43
2023-03-29T22:31:34.880Z,12.15
2023-03-29T22:34:05.583Z,11.77
2023-03-29T22:36:38.012Z,11.25
2023-03-29T22:39:09.123Z,12.20
2023-03-29T22:41:41.917Z,11.32
2023-03-29T22:44:12.960Z,12.20
2023-03-29T22:46:43.673Z,12.25
2023-03-29T22:49:14.824Z,11.68
2023-03-29T22:51:45.526Z,12.63
2023-03-29T22:54:16.474Z,11.55
2023-03-29T22:56:48.288Z,11.90
2023-03-29T22:59:19.134Z,11.68
2023-03-29T23:01:50.107Z,12.63
2023-03-29T23:04:21.120Z,12.07
2023-03-29T23:06:51.889Z,11.93
2023-03-29T23:09:22.838Z,12.13
2023-03-29T23:11:54.716Z,11.88
2023-03-29T23:14:25.446Z,12.18
2023-03-29T23:16:55.996Z,11.07
2023-03-29T23:19:27.144Z,11.43
2023-03-29T23:21:57.618Z,12.07
2023-03-29T23:24:30.472Z,13.05
2023-03-29T23:27:03.107Z,13.02
2023-03-29T23:29:34.636Z,13.38
2023-03-29T23:32:05.511Z,13.20
2023-03-29T23:34:36.297Z,15.27
2023-03-29T23:37:06.872Z,15.35
2023-03-29T23:39:37.788Z,14.95
2023-03-29T23:42:09.739Z,15.35
2023-03-29T23:44:40.697Z,13.68
2023-03-29T23:47:11.304Z,14.45
2023-03-29T23:49:42.140Z,12.75
2023-03-29T23:52:12.661Z,13.18
2023-03-29T23:54:43.301Z,13.63
2023-03-29T23:57:15.522Z,13.43
2023-03-29T23:59:46.459Z,12.87
